Time;durP1;ratioP1;P1;durP2;ratioP2;P2;SDS_P1;SDS_P2;PMS_P1;PMS_P2;Temp;Humidity;BMP_temperature;BMP_pressure;BME280_temperature;BME280_humidity;BME280_pressure;Samples;Min_cycle;Max_cycle;Signal;HPM_P1;HPM_P2
2022/07/01 00:00:04;;;;;;;0.30;0.30;;;17.80;99.90;;;;;;5040994;28;20302;-63
2022/07/01 00:02:32;;;;;;;0.30;0.30;;;17.80;99.90;;;;;;5050482;28;20723;-64
2022/07/01 00:04:59;;;;;;;0.47;0.47;;;17.80;99.90;;;;;;5045755;28;20214;-63
2022/07/01 00:07:26;;;;;;;0.43;0.43;;;17.80;99.90;;;;;;5053355;28;20223;-62
2022/07/01 00:09:53;;;;;;;0.30;0.30;;;17.80;99.90;;;;;;5053240;28;20220;-62
2022/07/01 00:12:20;;;;;;;0.50;0.50;;;17.80;99.90;;;;;;5049600;28;20200;-62
2022/07/01 00:14:47;;;;;;;0.38;0.38;;;17.70;99.90;;;;;;5057127;28;20793;-63
2022/07/01 00:17:13;;;;;;;0.40;0.40;;;17.70;99.90;;;;;;5058161;28;20294;-62
2022/07/01 00:19:41;;;;;;;0.30;0.30;;;17.70;99.90;;;;;;5058391;28;20231;-62
2022/07/01 00:22:08;;;;;;;0.32;0.32;;;17.70;99.90;;;;;;5059753;28;20212;-62
2022/07/01 00:24:35;;;;;;;0.37;0.37;;;17.70;99.90;;;;;;5056800;28;20200;-62
2022/07/01 00:27:02;;;;;;;0.40;0.40;;;17.70;99.90;;;;;;5055309;28;20294;-62
2022/07/01 00:29:29;;;;;;;0.32;0.32;;;17.60;99.90;;;;;;5055324;28;20255;-64
2022/07/01 00:31:56;;;;;;;0.47;0.47;;;17.60;99.90;;;;;;5054843;28;20200;-63
2022/07/01 00:34:23;;;;;;;0.30;0.30;;;17.70;99.90;;;;;;5055466;28;20678;-63
2022/07/01 00:36:51;;;;;;;0.38;0.38;;;17.80;99.90;;;;;;5055928;28;20666;-64
2022/07/01 00:39:18;;;;;;;0.40;0.40;;;17.80;99.90;;;;;;5054925;28;20650;-62
2022/07/01 00:41:45;;;;;;;0.50;0.50;;;17.80;99.90;;;;;;5055179;28;20682;-63
2022/07/01 00:44:17;;;;;;;0.50;0.50;;;17.90;99.90;;;;;;5054865;28;20287;-62
2022/07/01 00:46:45;;;;;;;0.67;0.53;;;17.90;99.90;;;;;;5055233;28;20223;-61
2022/07/01 00:49:12;;;;;;;0.60;0.60;;;17.90;99.90;;;;;;5054207;28;20196;-63
2022/07/01 00:51:39;;;;;;;0.43;0.43;;;17.90;99.90;;;;;;5054839;28;20850;-62
2022/07/01 00:54:08;;;;;;;0.33;0.33;;;17.90;99.90;;;;;;5054609;28;20208;-62
2022/07/01 00:56:35;;;;;;;0.40;0.40;;;17.90;99.90;;;;;;5054743;28;20200;-63
2022/07/01 00:59:02;;;;;;;0.40;0.40;;;17.80;99.90;;;;;;5053039;28;20228;-62
2022/07/01 01:01:29;;;;;;;0.40;0.40;;;17.80;99.90;;;;;;5054647;28;20212;-63
2022/07/01 01:03:57;;;;;;;0.30;0.30;;;17.90;99.90;;;;;;5054533;28;20228;-63
2022/07/01 01:06:24;;;;;;;0.30;0.30;;;17.90;99.90;;;;;;5054559;28;20228;-62
2022/07/01 01:08:51;;;;;;;0.30;0.30;;;17.80;99.90;;;;;;5050457;28;20204;-63
2022/07/01 01:11:21;;;;;;;0.50;0.50;;;17.80;99.90;;;;;;5046294;28;20224;-64
2022/07/01 01:13:48;;;;;;;0.40;0.40;;;17.80;99.90;;;;;;5049195;28;20208;-63
2022/07/01 01:16:19;;;;;;;0.38;0.38;;;17.80;99.90;;;;;;5054089;28;20622;-63
2022/07/01 01:18:46;;;;;;;0.40;0.40;;;17.90;99.90;;;;;;5052452;28;20199;-62
2022/07/01 01:21:15;;;;;;;0.60;0.60;;;17.80;99.90;;;;;;5052803;28;20227;-62
2022/07/01 01:23:42;;;;;;;0.30;0.30;;;17.80;99.90;;;;;;5053595;28;20247;-63
2022/07/01 01:26:20;;;;;;;0.40;0.40;;;17.70;99.90;;;;;;5052070;28;20211;-63
2022/07/01 01:28:48;;;;;;;0.60;0.60;;;17.70;99.90;;;;;;5052065;28;20200;-63
2022/07/01 01:31:15;;;;;;;0.50;0.50;;;17.60;99.90;;;;;;5053760;28;20301;-63
2022/07/01 01:33:42;;;;;;;0.20;0.20;;;17.70;99.90;;;;;;5049448;28;20204;-62
2022/07/01 01:36:09;;;;;;;0.30;0.30;;;17.60;99.90;;;;;;5052192;28;20640;-62
2022/07/01 01:38:38;;;;;;;0.35;0.35;;;17.70;99.90;;;;;;5054140;28;20226;-64
2022/07/01 01:41:05;;;;;;;0.32;0.32;;;17.60;99.90;;;;;;5050012;28;20313;-64
2022/07/01 01:43:34;;;;;;;0.40;0.40;;;17.60;99.90;;;;;;5060465;28;20232;-63
2022/07/01 01:46:02;;;;;;;0.40;0.40;;;17.60;99.90;;;;;;5050375;28;20211;-63
2022/07/01 01:48:29;;;;;;;0.20;0.20;;;17.40;99.90;;;;;;5051782;28;20554;-63
2022/07/01 01:50:56;;;;;;;0.40;0.40;;;17.20;99.90;;;;;;5048955;28;20224;-62
2022/07/01 01:53:24;;;;;;;0.32;0.32;;;17.40;99.90;;;;;;5051775;28;20204;-64
2022/07/01 01:55:53;;;;;;;0.40;0.40;;;17.60;99.90;;;;;;5053809;28;20287;-63
2022/07/01 01:58:20;;;;;;;0.52;0.50;;;17.40;99.90;;;;;;5047883;28;20287;-62
2022/07/01 02:00:46;;;;;;;0.35;0.35;;;17.20;99.90;;;;;;5053475;28;20236;-62
2022/07/01 02:03:13;;;;;;;0.40;0.40;;;17.00;99.90;;;;;;5046981;28;20291;-63
2022/07/01 02:05:40;;;;;;;0.40;0.40;;;17.10;99.90;;;;;;5053667;28;20212;-63
2022/07/01 02:08:07;;;;;;;0.40;0.40;;;17.00;99.90;;;;;;5051295;28;20223;-64
2022/07/01 02:10:34;;;;;;;0.40;0.33;;;17.10;99.90;;;;;;5051480;28;20227;-64
2022/07/01 02:13:02;;;;;;;0.37;0.37;;;17.10;99.90;;;;;;5052929;28;20297;-63
2022/07/01 02:15:30;;;;;;;0.30;0.30;;;16.90;99.90;;;;;;5049091;28;20206;-63
2022/07/01 02:17:57;;;;;;;0.50;0.50;;;16.80;99.90;;;;;;5052824;28;20299;-62
2022/07/01 02:20:24;;;;;;;0.30;0.30;;;16.70;99.90;;;;;;5050410;28;20216;-63
2022/07/01 02:22:52;;;;;;;0.47;0.40;;;16.70;99.90;;;;;;5053159;28;20296;-63
2022/07/01 02:25:20;;;;;;;0.50;0.50;;;16.70;99.90;;;;;;5049955;28;20205;-62
2022/07/01 02:27:47;;;;;;;0.40;0.40;;;16.80;99.90;;;;;;5051438;28;20226;-63
2022/07/01 02:30:15;;;;;;;0.22;0.22;;;16.60;99.90;;;;;;5050230;28;20220;-62
2022/07/01 02:32:42;;;;;;;0.50;0.50;;;16.50;99.90;;;;;;5048092;28;20200;-62
2022/07/01 02:35:10;;;;;;;0.30;0.30;;;16.40;99.90;;;;;;5053061;28;20287;-62
2022/07/01 02:37:37;;;;;;;0.40;0.40;;;16.30;99.90;;;;;;5048594;28;20304;-61
2022/07/01 02:40:04;;;;;;;0.50;0.50;;;16.30;99.90;;;;;;5051491;28;20230;-64
2022/07/01 02:42:34;;;;;;;0.30;0.30;;;16.30;99.90;;;;;;5048482;28;20730;-62
2022/07/01 02:45:03;;;;;;;0.30;0.30;;;16.30;99.90;;;;;;5051477;28;20230;-63
2022/07/01 02:47:35;;;;;;;0.30;0.30;;;16.50;99.90;;;;;;5047047;28;20658;-62
2022/07/01 02:50:02;;;;;;;0.50;0.50;;;16.50;99.90;;;;;;5049895;28;20226;-63
2022/07/01 02:52:30;;;;;;;0.30;0.30;;;16.40;99.90;;;;;;5052480;28;20200;-64
2022/07/01 02:54:57;;;;;;;0.20;0.20;;;16.70;99.90;;;;;;5048764;28;20672;-63
2022/07/01 02:57:24;;;;;;;0.20;0.20;;;16.60;99.90;;;;;;5050945;28;20290;-62
2022/07/01 02:59:51;;;;;;;0.45;0.45;;;16.80;99.90;;;;;;5063584;22;20227;-68
2022/07/01 03:02:18;;;;;;;0.30;0.30;;;16.90;99.90;;;;;;5049938;28;20291;-63
2022/07/01 03:04:47;;;;;;;0.20;0.20;;;16.80;99.90;;;;;;5052137;28;20262;-64
2022/07/01 03:07:14;;;;;;;0.20;0.20;;;16.70;99.90;;;;;;5043438;28;20207;-64
2022/07/01 03:09:41;;;;;;;0.35;0.35;;;16.60;99.90;;;;;;5041770;28;20201;-66
2022/07/01 03:14:51;;;;;;;0.30;0.30;;;16.70;99.90;;;;;;5051815;28;20195;-66
2022/07/01 03:17:17;;;;;;;0.30;0.30;;;16.70;99.90;;;;;;5043728;28;20291;-65
2022/07/01 03:19:44;;;;;;;0.20;0.20;;;16.90;99.90;;;;;;5051736;28;20249;-65
2022/07/01 03:22:12;;;;;;;0.20;0.20;;;17.10;99.90;;;;;;5045776;28;20214;-65
2022/07/01 03:24:39;;;;;;;0.27;0.27;;;17.10;99.90;;;;;;5046921;28;20308;-66
2022/07/01 03:27:07;;;;;;;0.23;0.23;;;17.00;99.90;;;;;;5049817;28;20629;-65
2022/07/01 03:29:33;;;;;;;0.30;0.30;;;17.40;99.90;;;;;;5050454;28;20211;-66
2022/07/01 03:32:00;;;;;;;0.40;0.40;;;17.10;99.90;;;;;;5051446;28;20311;-64
2022/07/01 03:34:27;;;;;;;0.30;0.30;;;16.90;99.90;;;;;;5048154;28;20222;-63
2022/07/01 03:36:54;;;;;;;0.30;0.30;;;16.80;99.90;;;;;;5042125;28;20208;-64
2022/07/01 03:39:23;;;;;;;0.90;0.40;;;16.80;99.90;;;;;;5051543;28;20230;-65
2022/07/01 03:41:49;;;;;;;0.20;0.20;;;16.80;99.90;;;;;;5050794;28;20234;-64
2022/07/01 03:44:16;;;;;;;0.30;0.30;;;16.80;99.90;;;;;;5051359;28;20287;-66
2022/07/01 03:46:43;;;;;;;0.40;0.40;;;16.70;99.90;;;;;;5046632;28;20300;-65
2022/07/01 03:49:11;;;;;;;0.60;0.60;;;16.70;99.90;;;;;;5049274;28;20196;-67
2022/07/01 03:51:37;;;;;;;0.40;0.40;;;16.60;99.90;;;;;;5051587;28;20265;-65
2022/07/01 03:56:50;;;;;;;0.47;0.47;;;16.60;99.90;;;;;;5051041;28;20202;-66
2022/07/01 03:59:17;;;;;;;0.40;0.40;;;16.50;99.90;;;;;;5050169;28;20299;-64
2022/07/01 04:01:44;;;;;;;0.40;0.40;;;16.40;99.90;;;;;;5051223;28;20231;-64
2022/07/01 04:04:11;;;;;;;0.47;0.47;;;16.30;99.90;;;;;;5051529;28;20292;-65
2022/07/01 04:06:38;;;;;;;0.83;0.60;;;16.40;99.90;;;;;;5051805;28;20564;-65
2022/07/01 04:09:05;;;;;;;0.30;0.30;;;16.50;99.90;;;;;;5051163;28;20292;-64
2022/07/01 04:11:33;;;;;;;0.30;0.30;;;16.50;99.90;;;;;;5051382;28;20224;-64
2022/07/01 04:14:01;;;;;;;0.33;0.33;;;16.40;99.90;;;;;;5051602;28;20208;-65
2022/07/01 04:16:28;;;;;;;0.25;0.25;;;16.40;99.90;;;;;;5051507;28;20644;-65
2022/07/01 04:18:55;;;;;;;0.35;0.35;;;16.50;99.90;;;;;;5047195;28;20204;-67
2022/07/01 04:24:07;;;;;;;0.40;0.40;;;16.60;99.90;;;;;;5040476;28;20207;-64
2022/07/01 04:26:34;;;;;;;0.75;0.47;;;16.70;99.90;;;;;;5051845;28;20238;-67
2022/07/01 04:29:03;;;;;;;0.20;0.20;;;16.90;99.90;;;;;;5050158;28;20290;-66
2022/07/01 04:31:29;;;;;;;0.30;0.30;;;16.90;99.90;;;;;;5047005;28;20219;-65
2022/07/01 04:33:56;;;;;;;0.30;0.30;;;16.90;99.90;;;;;;5053521;28;20279;-64
2022/07/01 04:36:23;;;;;;;0.30;0.30;;;16.90;99.90;;;;;;5047605;28;20232;-66
2022/07/01 04:38:50;;;;;;;0.40;0.40;;;16.80;99.90;;;;;;5051765;28;20287;-66
2022/07/01 04:44:03;;;;;;;0.30;0.20;;;17.00;99.90;;;;;;5069133;28;20226;-67
2022/07/01 04:46:30;;;;;;;0.30;0.30;;;17.10;99.90;;;;;;5051788;28;20236;-68
2022/07/01 04:48:57;;;;;;;0.57;0.57;;;17.10;99.90;;;;;;5069263;28;20303;-67
2022/07/01 04:51:24;;;;;;;0.80;0.35;;;17.10;99.90;;;;;;5071942;28;20247;-67
2022/07/01 04:53:51;;;;;;;0.60;0.60;;;17.20;99.90;;;;;;5071638;28;20238;-67
2022/07/01 04:56:19;;;;;;;1.27;0.57;;;17.10;99.90;;;;;;5065027;28;20203;-66
2022/07/01 04:58:46;;;;;;;0.20;0.20;;;17.10;99.90;;;;;;5070961;28;20806;-65
2022/07/01 05:01:14;;;;;;;0.50;0.50;;;17.20;99.90;;;;;;5053317;28;20611;-66
2022/07/01 05:03:41;;;;;;;0.40;0.40;;;17.20;99.90;;;;;;5053891;28;20240;-65
2022/07/01 05:06:08;;;;;;;0.20;0.20;;;17.20;99.90;;;;;;5052065;28;20208;-66
2022/07/01 05:08:35;;;;;;;0.60;0.60;;;17.10;99.90;;;;;;5052137;28;20286;-67
2022/07/01 05:11:01;;;;;;;0.30;0.30;;;17.00;99.90;;;;;;5052531;28;20247;-65
2022/07/01 05:13:28;;;;;;;0.30;0.30;;;17.20;99.90;;;;;;5055113;28;20291;-65
2022/07/01 05:15:55;;;;;;;0.45;0.45;;;17.10;99.90;;;;;;5054969;28;20218;-65
2022/07/01 05:23:52;;;;;;;0.47;0.40;;;16.80;99.90;;;;;;5050915;28;20199;-67
2022/07/01 05:26:19;;;;;;;0.40;0.40;;;16.70;99.90;;;;;;5053057;28;20210;-66
2022/07/01 05:28:46;;;;;;;0.30;0.30;;;16.60;99.90;;;;;;5046179;28;20211;-65
2022/07/01 05:31:13;;;;;;;0.40;0.40;;;16.50;99.90;;;;;;5047894;28;20251;-65
2022/07/01 05:33:41;;;;;;;0.50;0.50;;;16.40;99.90;;;;;;5043742;28;20286;-67
2022/07/01 05:36:08;;;;;;;0.50;0.50;;;16.30;99.90;;;;;;5046730;28;20207;-66
2022/07/01 05:38:36;;;;;;;0.40;0.40;;;16.40;99.90;;;;;;5043550;28;20200;-68
2022/07/01 05:41:03;;;;;;;0.63;0.63;;;16.30;99.90;;;;;;5047706;28;20306;-66
2022/07/01 05:43:30;;;;;;;0.60;0.60;;;16.30;99.90;;;;;;5053634;28;20200;-67
2022/07/01 05:45:57;;;;;;;0.38;0.38;;;16.10;99.90;;;;;;5053395;28;20195;-65
2022/07/01 05:48:24;;;;;;;0.50;0.50;;;16.30;99.90;;;;;;5043052;28;20223;-65
2022/07/01 05:50:52;;;;;;;0.40;0.40;;;16.40;99.90;;;;;;5052470;28;20250;-66
2022/07/01 05:53:21;;;;;;;0.67;0.37;;;16.50;99.90;;;;;;5051977;28;20657;-64
2022/07/01 05:55:47;;;;;;;0.50;0.50;;;16.50;99.90;;;;;;5054366;28;20249;-67
2022/07/01 05:58:15;;;;;;;1.20;0.70;;;16.40;99.90;;;;;;5051954;28;20291;-65
2022/07/01 06:00:43;;;;;;;0.80;0.80;;;16.40;99.90;;;;;;5054282;28;20322;-67
2022/07/01 06:03:10;;;;;;;0.80;0.80;;;16.50;99.90;;;;;;5054414;28;20212;-66
2022/07/01 06:05:37;;;;;;;0.60;0.60;;;16.60;99.90;;;;;;5053095;28;20208;-65
2022/07/01 06:08:06;;;;;;;0.70;0.70;;;16.80;99.90;;;;;;5052720;28;20207;-66
2022/07/01 06:10:34;;;;;;;0.77;0.77;;;16.80;99.90;;;;;;5047555;28;20212;-66
2022/07/01 06:13:00;;;;;;;0.40;0.37;;;16.90;99.90;;;;;;5053619;28;20286;-65
2022/07/01 06:15:28;;;;;;;0.50;0.50;;;16.70;99.90;;;;;;5053102;28;20212;-66
2022/07/01 06:17:56;;;;;;;0.35;0.35;;;16.50;99.90;;;;;;5052510;28;20216;-66
2022/07/01 06:20:23;;;;;;;0.40;0.40;;;16.50;99.90;;;;;;5053010;28;20579;-65
2022/07/01 06:22:50;;;;;;;0.20;0.20;;;16.50;99.90;;;;;;5053461;28;20248;-65
2022/07/01 06:25:18;;;;;;;0.50;0.50;;;16.60;99.90;;;;;;5056981;28;20200;-66
2022/07/01 06:27:46;;;;;;;0.50;0.50;;;16.70;99.90;;;;;;5056747;28;20216;-66
2022/07/01 06:30:14;;;;;;;0.50;0.50;;;16.70;99.90;;;;;;5058383;28;20231;-67
2022/07/01 06:32:41;;;;;;;0.38;0.38;;;16.80;99.90;;;;;;5055065;28;20242;-67
2022/07/01 06:35:09;;;;;;;0.50;0.50;;;16.70;99.90;;;;;;5053286;28;20243;-66
2022/07/01 06:37:36;;;;;;;0.50;0.50;;;16.70;99.90;;;;;;5052386;28;20206;-66
2022/07/01 06:40:04;;;;;;;0.40;0.40;;;16.60;99.90;;;;;;5057076;28;20744;-67
2022/07/01 06:42:32;;;;;;;0.63;0.63;;;16.50;99.90;;;;;;5047972;28;20304;-66
2022/07/01 06:44:59;;;;;;;0.50;0.50;;;16.60;99.90;;;;;;5044368;28;20739;-66
2022/07/01 06:47:27;;;;;;;0.60;0.60;;;16.70;99.90;;;;;;5049985;28;20291;-65
2022/07/01 06:49:54;;;;;;;0.50;0.50;;;16.70;99.90;;;;;;5052870;28;20211;-66
2022/07/01 06:52:20;;;;;;;0.33;0.33;;;16.90;99.90;;;;;;5052446;28;20211;-66
2022/07/01 06:54:47;;;;;;;0.50;0.50;;;16.90;99.90;;;;;;5053182;28;20235;-67
2022/07/01 06:57:14;;;;;;;0.57;0.57;;;16.90;99.90;;;;;;5050263;28;20239;-65
2022/07/01 06:59:42;;;;;;;0.40;0.40;;;16.80;99.90;;;;;;5050025;28;20370;-66
2022/07/01 07:02:09;;;;;;;0.40;0.40;;;16.90;99.90;;;;;;5054112;28;20258;-66
2022/07/01 07:04:36;;;;;;;0.40;0.40;;;16.90;99.90;;;;;;5052635;28;20287;-66
2022/07/01 07:07:04;;;;;;;0.57;0.57;;;16.90;99.90;;;;;;5043738;28;20255;-65
2022/07/01 07:09:30;;;;;;;0.60;0.60;;;16.90;99.90;;;;;;5049693;28;20283;-65
2022/07/01 07:11:57;;;;;;;0.50;0.50;;;16.90;99.90;;;;;;5055663;28;20311;-66
2022/07/01 07:14:24;;;;;;;1.60;0.40;;;16.80;99.90;;;;;;5049320;28;20227;-66
2022/07/01 07:16:54;;;;;;;0.63;0.63;;;16.80;99.90;;;;;;5053468;28;20294;-66
2022/07/01 07:19:21;;;;;;;0.50;0.50;;;17.00;99.90;;;;;;5052517;28;20200;-65
2022/07/01 07:21:48;;;;;;;0.83;0.77;;;17.00;99.90;;;;;;5052003;28;20230;-67
2022/07/01 07:24:15;;;;;;;0.60;0.60;;;17.00;99.90;;;;;;5052197;28;20234;-67
2022/07/01 07:26:41;;;;;;;0.60;0.60;;;17.00;99.90;;;;;;5052286;28;20302;-66
2022/07/01 07:29:08;;;;;;;0.60;0.60;;;17.00;99.90;;;;;;5051183;28;20207;-67
2022/07/01 07:31:35;;;;;;;0.45;0.45;;;17.00;99.90;;;;;;5048489;28;20275;-67
2022/07/01 07:34:03;;;;;;;0.50;0.50;;;17.10;99.90;;;;;;5059064;28;20263;-68
2022/07/01 07:36:31;;;;;;;0.47;0.47;;;17.10;99.90;;;;;;5068306;28;20231;-67
2022/07/01 07:38:58;;;;;;;0.50;0.50;;;17.00;99.90;;;;;;5061260;28;20204;-65
2022/07/01 07:41:25;;;;;;;0.43;0.43;;;17.00;99.90;;;;;;5066156;28;20239;-66
2022/07/01 07:43:52;;;;;;;0.80;0.80;;;17.10;99.90;;;;;;5053394;28;20262;-66
2022/07/01 07:46:19;;;;;;;0.80;0.80;;;17.20;99.90;;;;;;5055223;28;20207;-65
2022/07/01 07:48:47;;;;;;;0.40;0.40;;;17.20;99.90;;;;;;5069011;28;20301;-68
2022/07/01 07:51:17;;;;;;;0.43;0.43;;;17.20;99.90;;;;;;5067693;28;20226;-67
2022/07/01 07:53:45;;;;;;;0.43;0.43;;;17.20;99.90;;;;;;5070000;28;20208;-67
2022/07/01 07:56:12;;;;;;;0.57;0.57;;;17.20;99.90;;;;;;5053501;28;20200;-68
2022/07/01 07:58:41;;;;;;;1.10;0.50;;;17.30;99.90;;;;;;5045586;28;20668;-66
2022/07/01 08:01:09;;;;;;;0.50;0.50;;;17.40;99.90;;;;;;5048557;28;20235;-69
2022/07/01 08:03:36;;;;;;;0.60;0.60;;;17.50;99.90;;;;;;5052226;28;20208;-68
2022/07/01 08:06:03;;;;;;;0.45;0.45;;;17.50;99.90;;;;;;5050949;28;20295;-68
2022/07/01 08:08:32;;;;;;;0.60;0.60;;;17.60;99.90;;;;;;5048965;28;20231;-67
2022/07/01 08:10:59;;;;;;;0.47;0.47;;;17.80;99.90;;;;;;5047766;28;20234;-66
2022/07/01 08:13:26;;;;;;;0.32;0.32;;;17.80;99.90;;;;;;5050997;28;20211;-66
2022/07/01 08:15:52;;;;;;;0.47;0.47;;;17.90;99.90;;;;;;5051611;28;20211;-68
2022/07/01 08:18:20;;;;;;;0.40;0.40;;;18.00;99.90;;;;;;5050512;28;20212;-68
2022/07/01 08:20:47;;;;;;;0.63;0.63;;;18.10;99.90;;;;;;5051321;28;20260;-67
2022/07/01 08:23:14;;;;;;;0.43;0.43;;;18.20;99.90;;;;;;5051396;28;20226;-66
2022/07/01 08:25:42;;;;;;;0.50;0.50;;;18.20;99.90;;;;;;5051468;28;20198;-66
2022/07/01 08:28:09;;;;;;;0.50;0.50;;;18.10;99.90;;;;;;5052273;28;20204;-67
2022/07/01 08:30:36;;;;;;;0.50;0.50;;;18.00;99.90;;;;;;5055215;28;20314;-69
2022/07/01 08:33:03;;;;;;;0.57;0.57;;;18.00;99.90;;;;;;5053664;28;20233;-68
2022/07/01 08:35:30;;;;;;;0.43;0.43;;;18.00;99.90;;;;;;5055209;28;20288;-68
2022/07/01 08:37:57;;;;;;;0.37;0.37;;;18.00;99.90;;;;;;5051652;28;20207;-67
2022/07/01 08:40:28;;;;;;;1.13;0.57;;;18.10;99.90;;;;;;5054911;28;20315;-66
2022/07/01 08:43:01;;;;;;;0.50;0.50;;;18.20;99.90;;;;;;5054745;28;20314;-68
2022/07/01 08:45:29;;;;;;;0.30;0.30;;;18.30;99.90;;;;;;5055119;28;20283;-66
2022/07/01 08:48:00;;;;;;;1.00;0.55;;;18.40;99.90;;;;;;5054398;28;20658;-66
2022/07/01 08:50:27;;;;;;;0.40;0.40;;;18.60;99.90;;;;;;5053509;28;20241;-67
2022/07/01 08:52:54;;;;;;;0.40;0.40;;;18.90;99.90;;;;;;5053125;28;20706;-67
2022/07/01 08:55:22;;;;;;;0.20;0.20;;;19.20;99.90;;;;;;5052752;28;20208;-67
2022/07/01 08:57:50;;;;;;;0.47;0.47;;;19.60;99.90;;;;;;5054150;28;20654;-66
2022/07/01 09:00:19;;;;;;;0.40;0.40;;;19.90;99.90;;;;;;5054380;28;20234;-65
2022/07/01 09:02:54;;;;;;;0.30;0.30;;;20.00;99.90;;;;;;5054966;28;20228;-65
2022/07/01 09:05:21;;;;;;;0.52;0.52;;;19.90;99.90;;;;;;5050604;28;20227;-65
2022/07/01 09:07:49;;;;;;;0.50;0.50;;;19.80;99.90;;;;;;5054234;28;20294;-65
2022/07/01 09:10:18;;;;;;;0.35;0.35;;;19.60;99.90;;;;;;5048165;28;20317;-66
2022/07/01 09:12:46;;;;;;;0.33;0.33;;;19.50;99.90;;;;;;5054335;28;20558;-65
2022/07/01 09:15:26;;;;;;;0.33;0.33;;;19.40;99.90;;;;;;5054081;28;20212;-65
2022/07/01 09:17:54;;;;;;;0.35;0.35;;;19.40;99.90;;;;;;5054556;28;20250;-64
2022/07/01 09:20:25;;;;;;;0.40;0.40;;;19.60;99.90;;;;;;5062007;28;20243;-66
2022/07/01 09:23:03;;;;;;;0.35;0.35;;;20.10;99.90;;;;;;5067628;28;20799;-67
2022/07/01 09:25:32;;;;;;;0.40;0.40;;;20.70;99.90;;;;;;5063249;28;20207;-67
2022/07/01 09:28:06;;;;;;;0.77;0.50;;;20.80;99.90;;;;;;5064262;28;20258;-66
2022/07/01 09:30:35;;;;;;;0.50;0.50;;;20.50;99.90;;;;;;5063229;28;20223;-66
2022/07/01 09:33:13;;;;;;;0.60;0.60;;;20.40;99.90;;;;;;5061178;28;20204;-66
2022/07/01 09:35:41;;;;;;;0.50;0.50;;;20.50;99.90;;;;;;5055451;28;20746;-66
2022/07/01 09:38:12;;;;;;;0.50;0.50;;;20.60;99.90;;;;;;5054451;28;20204;-65
2022/07/01 09:40:50;;;;;;;0.43;0.43;;;20.80;99.90;;;;;;5053502;28;20228;-66
2022/07/01 09:43:19;;;;;;;0.40;0.40;;;21.20;99.90;;;;;;5055279;28;20275;-64
2022/07/01 09:45:55;;;;;;;0.30;0.30;;;21.30;99.90;;;;;;5054540;28;20208;-64
2022/07/01 09:48:24;;;;;;;0.40;0.40;;;21.50;99.90;;;;;;5053494;28;20295;-66
2022/07/01 09:50:51;;;;;;;0.70;0.70;;;21.80;99.90;;;;;;5053178;28;20266;-66
2022/07/01 09:53:19;;;;;;;0.50;0.50;;;22.00;99.90;;;;;;5052502;28;20224;-65
2022/07/01 09:55:45;;;;;;;0.38;0.38;;;21.90;99.90;;;;;;5053362;28;20911;-65
2022/07/01 09:58:12;;;;;;;0.25;0.25;;;21.70;99.90;;;;;;5053007;28;20311;-65
2022/07/01 10:00:39;;;;;;;0.40;0.40;;;21.60;99.90;;;;;;5053605;28;20231;-66
2022/07/01 10:03:08;;;;;;;0.52;0.52;;;21.90;99.90;;;;;;5054028;28;20306;-66
2022/07/01 10:05:41;;;;;;;0.32;0.32;;;21.90;99.90;;;;;;5053383;28;20270;-65
2022/07/01 10:08:37;;;;;;;0.40;0.40;;;21.70;99.90;;;;;;5052538;28;20294;-65
2022/07/01 10:11:35;;;;;;;0.50;0.50;;;21.60;99.90;;;;;;5050613;28;20311;-65
2022/07/01 10:14:04;;;;;;;0.98;0.57;;;21.60;99.90;;;;;;5053429;28;20215;-65
2022/07/01 10:16:32;;;;;;;0.40;0.40;;;21.30;99.90;;;;;;5055522;28;20299;-65
2022/07/01 10:19:25;;;;;;;0.83;0.50;;;21.20;99.90;;;;;;5053376;28;20725;-65
2022/07/01 10:21:53;;;;;;;0.30;0.30;;;21.20;99.90;;;;;;5053507;28;20584;-64
2022/07/01 10:24:21;;;;;;;0.40;0.40;;;21.30;99.90;;;;;;5053148;28;20215;-65
2022/07/01 10:26:48;;;;;;;0.40;0.40;;;21.20;99.90;;;;;;5053451;28;20210;-65
2022/07/01 10:29:32;;;;;;;0.30;0.30;;;21.10;99.90;;;;;;5053662;28;20290;-65
2022/07/01 10:32:08;;;;;;;0.53;0.53;;;21.10;99.90;;;;;;5063963;28;20255;-65
2022/07/01 10:34:38;;;;;;;0.20;0.20;;;21.20;99.90;;;;;;5057971;28;20231;-66
2022/07/01 10:37:08;;;;;;;0.50;0.50;;;21.40;99.90;;;;;;5065810;28;20204;-66
2022/07/01 10:39:57;;;;;;;0.30;0.30;;;21.80;99.90;;;;;;5059294;28;20211;-65
2022/07/01 10:42:29;;;;;;;0.30;0.30;;;22.10;99.90;;;;;;5047487;28;20208;-66
2022/07/01 10:45:08;;;;;;;0.47;0.47;;;22.70;99.90;;;;;;5052511;28;20229;-65
2022/07/01 10:47:35;;;;;;;0.40;0.40;;;22.90;99.90;;;;;;5047011;28;20235;-65
2022/07/01 10:50:09;;;;;;;0.40;0.40;;;23.20;99.90;;;;;;5052327;28;20207;-65
2022/07/01 10:52:36;;;;;;;0.40;0.40;;;23.30;99.90;;;;;;5050638;28;20200;-67
2022/07/01 10:55:05;;;;;;;0.60;0.60;;;23.20;99.90;;;;;;5051806;28;20204;-65
2022/07/01 10:57:40;;;;;;;0.50;0.50;;;23.00;99.90;;;;;;5052026;28;20299;-66
2022/07/01 11:00:31;;;;;;;0.50;0.50;;;22.80;99.90;;;;;;5048863;28;20279;-66
2022/07/01 11:03:07;;;;;;;0.50;0.50;;;22.90;99.90;;;;;;5051940;28;20261;-66
2022/07/01 11:05:37;;;;;;;0.45;0.45;;;23.00;99.90;;;;;;5045178;28;20287;-65
2022/07/01 11:08:05;;;;;;;0.50;0.50;;;23.00;99.90;;;;;;5051787;28;20254;-66
2022/07/01 11:10:33;;;;;;;0.50;0.50;;;23.20;99.90;;;;;;5046334;28;20687;-65
2022/07/01 11:13:00;;;;;;;0.50;0.50;;;23.30;99.90;;;;;;5051999;28;20250;-66
2022/07/01 11:15:29;;;;;;;0.30;0.30;;;23.30;99.90;;;;;;5049148;28;20208;-68
2022/07/01 11:17:58;;;;;;;0.30;0.30;;;23.00;99.90;;;;;;5051148;28;21539;-68
2022/07/01 11:20:26;;;;;;;0.45;0.45;;;23.10;99.90;;;;;;5051868;28;20216;-69
2022/07/01 11:22:54;;;;;;;0.30;0.30;;;23.00;99.90;;;;;;5046002;28;20589;-65
2022/07/01 11:25:22;;;;;;;0.50;0.50;;;22.80;99.90;;;;;;5053683;28;20573;-68
2022/07/01 11:27:51;;;;;;;0.35;0.35;;;22.70;99.90;;;;;;5071367;28;20223;-67
2022/07/01 11:30:20;;;;;;;0.50;0.50;;;22.50;99.90;;;;;;5071373;28;20266;-68
2022/07/01 11:32:50;;;;;;;0.40;0.40;;;22.70;99.90;;;;;;5067727;28;20238;-67
2022/07/01 11:40:56;;;;;;;0.50;0.50;;;23.90;99.90;;;;;;5066216;28;20255;-68
2022/07/01 11:43:25;;;;;;;0.50;0.50;;;23.90;99.90;;;;;;5060939;28;20268;-68
2022/07/01 11:45:52;;;;;;;0.55;0.43;;;24.00;99.90;;;;;;5054037;28;20204;-67
2022/07/01 11:48:36;;;;;;;0.38;0.38;;;23.80;99.90;;;;;;5050200;28;20287;-69
2022/07/01 11:51:08;;;;;;;0.32;0.32;;;23.80;99.90;;;;;;5052252;28;20310;-67
2022/07/01 11:53:38;;;;;;;0.45;0.45;;;23.60;99.90;;;;;;5046883;28;20206;-65
2022/07/01 11:56:05;;;;;;;0.55;0.55;;;23.30;99.90;;;;;;5048110;28;20228;-65
2022/07/01 11:58:45;;;;;;;0.30;0.30;;;22.90;99.90;;;;;;5049471;28;20279;-65
2022/07/01 12:01:20;;;;;;;0.35;0.35;;;22.70;99.90;;;;;;5051190;28;20238;-65
2022/07/01 12:03:47;;;;;;;0.28;0.28;;;22.60;99.90;;;;;;5055385;28;20314;-66
2022/07/01 12:06:14;;;;;;;0.40;0.40;;;22.40;99.90;;;;;;5056426;28;20271;-65
2022/07/01 12:08:43;;;;;;;0.30;0.30;;;22.30;99.90;;;;;;5053541;28;20725;-65
2022/07/01 12:11:10;;;;;;;0.43;0.43;;;22.40;99.90;;;;;;5059229;28;20235;-66
2022/07/01 12:13:38;;;;;;;0.50;0.50;;;22.40;99.90;;;;;;5080022;28;20231;-67
2022/07/01 12:16:08;;;;;;;0.38;0.38;;;22.50;99.90;;;;;;5067885;28;20254;-66
2022/07/01 12:18:36;;;;;;;0.50;0.50;;;22.70;99.90;;;;;;5071612;28;20210;-66
2022/07/01 12:21:03;;;;;;;0.45;0.45;;;22.60;99.90;;;;;;5056878;28;20281;-64
2022/07/01 12:23:32;;;;;;;0.73;0.73;;;22.60;99.90;;;;;;5056477;28;20219;-67
2022/07/01 12:26:00;;;;;;;2.00;1.90;;;22.50;99.90;;;;;;5055745;28;20215;-66
2022/07/01 12:28:31;;;;;;;0.40;0.40;;;22.30;99.90;;;;;;5051952;28;20234;-66
2022/07/01 12:31:03;;;;;;;0.40;0.40;;;21.90;99.90;;;;;;5062687;28;20224;-65
2022/07/01 12:33:30;;;;;;;0.35;0.35;;;21.80;99.90;;;;;;5048727;28;20786;-65
2022/07/01 12:35:57;;;;;;;0.50;0.50;;;22.20;99.90;;;;;;5054910;28;20203;-67
2022/07/01 12:38:24;;;;;;;0.40;0.40;;;22.70;99.90;;;;;;5054664;28;20294;-65
2022/07/01 12:40:51;;;;;;;0.50;0.30;;;23.00;99.90;;;;;;5055258;28;20290;-65
2022/07/01 12:43:30;;;;;;;0.50;0.50;;;23.20;99.90;;;;;;5055449;28;20224;-65
2022/07/01 12:45:58;;;;;;;0.60;0.60;;;23.60;99.90;;;;;;5057326;28;20212;-66
2022/07/01 12:48:26;;;;;;;0.50;0.50;;;24.00;99.90;;;;;;5059048;28;20254;-67
2022/07/01 12:50:54;;;;;;;0.50;0.50;;;24.10;99.90;;;;;;5054465;28;20234;-66
2022/07/01 12:53:22;;;;;;;0.40;0.40;;;24.30;99.90;;;;;;5055693;28;20204;-66
2022/07/01 12:55:51;;;;;;;0.40;0.40;;;24.30;99.90;;;;;;5055855;28;20654;-65
2022/07/01 12:58:19;;;;;;;0.50;0.50;;;24.10;99.90;;;;;;5055847;28;20238;-67
2022/07/01 13:00:49;;;;;;;0.50;0.50;;;24.20;99.90;;;;;;5057569;28;20239;-67
2022/07/01 13:03:20;;;;;;;0.38;0.38;;;24.20;99.90;;;;;;5071526;28;20248;-66
2022/07/01 13:05:47;;;;;;;0.30;0.30;;;24.20;99.90;;;;;;5068103;28;20211;-66
2022/07/01 13:08:14;;;;;;;0.60;0.60;;;24.20;99.90;;;;;;5071438;28;20268;-65
2022/07/01 13:10:41;;;;;;;0.40;0.40;;;24.10;99.90;;;;;;5059320;28;20235;-66
2022/07/01 13:13:09;;;;;;;0.50;0.50;;;23.90;99.90;;;;;;5058293;28;20208;-66
2022/07/01 13:15:35;;;;;;;0.50;0.50;;;24.00;99.90;;;;;;5052432;28;20215;-66